Zirfaea — PBZV — position and weather

sailwx.info

Track history (hours):
 
Tides and Currents Weather Stations Pressure Air Temp Water Temp Dewpoint Dewpoint Depression Visibility Wind Speed Wind Dir Waves Ship Positions

Oceanographic research ship Zirfaea (Netherlands)

Detailed information on ship capabilities available from University of Delaware's Ocean Information Center.

Last reported at 2018-Jun-19 14:40 UTC. Time now 2018-Jun-20 15:23 UTC.
Position N 51°51' E 003°08'.

Length 63 m; draft 3.9 m.

Type: Law enforcement. MMSI: 246096000.

Date/timePositionNaut miles runAvg speedWind from/ knotsBaromVisibWave heightAir tempDewpointWater temp
2018-Jun-19 14:40N 51°51' E 003°08'2 9.8
2018-Jun-19 14:30N 51°50' E 003°10'5 9.8
2018-Jun-19 14:00N 51°46' E 003°14'5 9.7
2018-Jun-19 13:29N 51°42' E 003°19'3 5.2
2018-Jun-19 13:01N 51°39' E 003°20'1 2.6
2018-Jun-19 12:30N 51°38' E 003°20'1 1.2
2018-Jun-19 11:59N 51°37' E 003°20'1 3.0
2018-Jun-19 11:30N 51°39' E 003°19'1 2.1
2018-Jun-19 11:00N 51°39' E 003°20'0 0.4
2018-Jun-19 10:30N 51°39' E 003°20'2 3.5
2018-Jun-19 10:00N 51°40' E 003°22'1 2.7
2018-Jun-19 09:30N 51°39' E 003°20'1 1.9
2018-Jun-19 09:00N 51°39' E 003°19'0 0.5
2018-Jun-19 08:28N 51°39' E 003°19'2 4.5
2018-Jun-19 08:00N 51°40' E 003°22'1 1.8
2018-Jun-19 07:28N 51°39' E 003°21'1 2.9
2018-Jun-19 07:00N 51°38' E 003°19'3 3.5
2018-Jun-19 06:02N 51°41' E 003°24'0 2.5
2018-Jun-19 05:57N 51°40' E 003°23'1 1.8
2018-Jun-19 05:29N 51°40' E 003°22'7 2.1
2018-Jun-19 02:17N 51°46' E 003°29'1 2.4
2018-Jun-19 01:58N 51°45' E 003°28'2 2.0
2018-Jun-19 01:13N 51°44' E 003°26'8 1.9
2018-Jun-18 21:01N 51°50' E 003°35'0 1.2
2018-Jun-18 20:57N 51°50' E 003°35'8 3.8
2018-Jun-18 18:49N 51°44' E 003°25'4 5.3
2018-Jun-18 18:02N 51°41' E 003°21'1 5.1
2018-Jun-18 17:55N 51°41' E 003°20'2 5.1
2018-Jun-18 17:28N 51°39' E 003°20'2 3.3
2018-Jun-18 16:56N 51°40' E 003°22'3 7.7
2018-Jun-18 16:29N 51°39' E 003°17'2 3.9
2018-Jun-18 15:59N 51°38' E 003°20'1 1.3
2018-Jun-18 15:28N 51°38' E 003°20'1 1.2
2018-Jun-18 14:56N 51°38' E 003°20'19 9.6
2018-Jun-18 12:59N 51°51' E 003°42'511.2
2018-Jun-18 12:30N 51°55' E 003°48'611.5
2018-Jun-18 12:00N 51°59' E 003°56'611.1
2018-Jun-18 11:31N 52°02' E 004°03'611.0
2018-Jun-18 11:00N 52°06' E 004°09'3 6.8
2018-Jun-18 10:30N 52°09' E 004°12'1 1.8
2018-Jun-18 10:01N 52°09' E 004°13'1 1.8
2018-Jun-18 09:31N 52°09' E 004°12'2 4.8
2018-Jun-18 09:00N 52°07' E 004°15'1 1.7
2018-Jun-18 08:26N 52°06' E 004°16'0 0.0
2018-Jun-18 07:59N 52°06' E 004°16'0 0.0
2018-Jun-18 07:29N 52°06' E 004°16'0 0.0
2018-Jun-18 06:59N 52°06' E 004°16'0 0.0
2018-Jun-18 06:29N 52°06' E 004°16'0 0.0
2018-Jun-18 05:59N 52°06' E 004°16'0 0.0
2018-Jun-18 05:29N 52°06' E 004°16'0 0.0
2018-Jun-18 04:59N 52°06' E 004°16'0 0.0
2018-Jun-18 04:26N 52°06' E 004°16'0 0.0
2018-Jun-18 03:59N 52°06' E 004°16'0 0.0
2018-Jun-18 03:29N 52°06' E 004°16'0 0.0
2018-Jun-18 02:56N 52°06' E 004°16'0 0.0
2018-Jun-18 02:26N 52°06' E 004°16'0 0.0
2018-Jun-18 01:59N 52°06' E 004°16'0 0.0
2018-Jun-18 01:29N 52°06' E 004°16'0 0.0
2018-Jun-18 00:59N 52°06' E 004°16'0 0.0
2018-Jun-18 00:29N 52°06' E 004°16'0 0.0
2018-Jun-17 23:59N 52°06' E 004°16'0 0.0
2018-Jun-17 23:29N 52°06' E 004°16'0 0.0
2018-Jun-17 22:59N 52°06' E 004°16'0 0.0
2018-Jun-17 22:29N 52°06' E 004°16'0 0.0
2018-Jun-17 21:59N 52°06' E 004°16'0 0.0
2018-Jun-17 21:29N 52°06' E 004°16'0 0.0
2018-Jun-17 20:59N 52°06' E 004°16'0 0.0
2018-Jun-17 20:29N 52°06' E 004°16'0 0.0
2018-Jun-17 19:59N 52°06' E 004°16'0 0.0
2018-Jun-17 19:29N 52°06' E 004°16'0 0.0
2018-Jun-17 18:59N 52°06' E 004°16'0 0.0
2018-Jun-17 18:29N 52°06' E 004°16'0 0.0
2018-Jun-17 17:59N 52°06' E 004°16'0 0.0
2018-Jun-17 17:29N 52°06' E 004°16'0 0.0
2018-Jun-17 16:59N 52°06' E 004°16'0 0.0
2018-Jun-17 16:29N 52°06' E 004°16'0 0.0
2018-Jun-17 15:59N 52°06' E 004°16'0 0.0
2018-Jun-17 15:29N 52°06' E 004°16'0 0.0
2018-Jun-17 14:59N 52°06' E 004°16'0 0.0
2018-Jun-17 14:29N 52°06' E 004°16'0 0.0
2018-Jun-17 13:59N 52°06' E 004°16'0 0.0
2018-Jun-17 13:29N 52°06' E 004°16'0 0.0
2018-Jun-17 12:59N 52°06' E 004°16'0 0.0
2018-Jun-17 12:29N 52°06' E 004°16'0 0.0
2018-Jun-17 11:59N 52°06' E 004°16'0 0.0
2018-Jun-17 11:29N 52°06' E 004°16'0 0.0
2018-Jun-17 10:59N 52°06' E 004°16'0 0.0
2018-Jun-17 10:29N 52°06' E 004°16'0 0.0
2018-Jun-17 09:59N 52°06' E 004°16'0 0.0
2018-Jun-17 09:29N 52°06' E 004°16'0 0.0
2018-Jun-17 08:59N 52°06' E 004°16'0 0.0
2018-Jun-17 08:29N 52°06' E 004°16'0 0.0
2018-Jun-17 07:59N 52°06' E 004°16'0 0.0
2018-Jun-17 07:29N 52°06' E 004°16'0 0.0
2018-Jun-17 06:56N 52°06' E 004°16'0 0.0
2018-Jun-17 06:29N 52°06' E 004°16'0 0.0
2018-Jun-17 05:59N 52°06' E 004°16'0 0.0
2018-Jun-17 05:23N 52°06' E 004°16'0 0.0
2018-Jun-17 04:59N 52°06' E 004°16'0 0.0
2018-Jun-17 04:29N 52°06' E 004°16'0 0.0
2018-Jun-17 03:59N 52°06' E 004°16'0 0.0
2018-Jun-17 03:29N 52°06' E 004°16'0 0.0
2018-Jun-17 02:59N 52°06' E 004°16'0 0.0
2018-Jun-17 02:29N 52°06' E 004°16'0 0.0
2018-Jun-17 01:59N 52°06' E 004°16'0 0.0
2018-Jun-17 01:29N 52°06' E 004°16'0 0.0
2018-Jun-17 00:59N 52°06' E 004°16'0 0.0
2018-Jun-17 00:29N 52°06' E 004°16'0 0.0
2018-Jun-16 23:59N 52°06' E 004°16'0 0.0
2018-Jun-16 23:29N 52°06' E 004°16'0 0.0
2018-Jun-16 22:59N 52°06' E 004°16'0 0.0
2018-Jun-16 22:29N 52°06' E 004°16'0 0.0
2018-Jun-16 21:59N 52°06' E 004°16'0 0.0
2018-Jun-16 21:29N 52°06' E 004°16'0 0.0
2018-Jun-16 20:59N 52°06' E 004°16'0 0.0
2018-Jun-16 20:29N 52°06' E 004°16'0 0.0
2018-Jun-16 19:59N 52°06' E 004°16'0 0.0
2018-Jun-16 19:29N 52°06' E 004°16'0 0.0
2018-Jun-16 18:59N 52°06' E 004°16'0 0.0
2018-Jun-16 18:26N 52°06' E 004°16'0 0.0
2018-Jun-16 17:59N 52°06' E 004°16'0 0.0
2018-Jun-16 17:29N 52°06' E 004°16'0 0.0
2018-Jun-16 16:59N 52°06' E 004°16'0 0.0
2018-Jun-16 16:29N 52°06' E 004°16'0 0.0
2018-Jun-16 15:59N 52°06' E 004°16'0 0.0
2018-Jun-16 15:29N 52°06' E 004°16'0 0.0
2018-Jun-16 14:59N 52°06' E 004°16'0 0.0
2018-Jun-16 14:29N 52°06' E 004°16'0 0.0
2018-Jun-16 13:59N 52°06' E 004°16'0 0.0
2018-Jun-16 13:29N 52°06' E 004°16'0 0.0
2018-Jun-16 12:59N 52°06' E 004°16'0 0.0
2018-Jun-16 12:29N 52°06' E 004°16'0 0.0
2018-Jun-16 11:59N 52°06' E 004°16'0 0.0
2018-Jun-16 11:29N 52°06' E 004°16'0 0.0
2018-Jun-16 10:59N 52°06' E 004°16'0 0.0
2018-Jun-16 10:29N 52°06' E 004°16'0 0.0
2018-Jun-16 09:59N 52°06' E 004°16'0 0.0
2018-Jun-16 09:29N 52°06' E 004°16'0 0.0
2018-Jun-16 08:59N 52°06' E 004°16'0 0.0
2018-Jun-16 08:29N 52°06' E 004°16'0 0.0
2018-Jun-16 07:59N 52°06' E 004°16'0 0.0
2018-Jun-16 07:29N 52°06' E 004°16'0 0.0
2018-Jun-16 06:59N 52°06' E 004°16'0 0.0
2018-Jun-16 06:29N 52°06' E 004°16'0 0.0
2018-Jun-16 05:56N 52°06' E 004°16'0 0.0
2018-Jun-16 05:29N 52°06' E 004°16'0 0.0
2018-Jun-16 04:59N 52°06' E 004°16'0 0.0
2018-Jun-16 04:29N 52°06' E 004°16'0 0.0
2018-Jun-16 03:59N 52°06' E 004°16'0 0.0
2018-Jun-16 03:26N 52°06' E 004°16'0 0.0
2018-Jun-16 02:59N 52°06' E 004°16'0 0.0
2018-Jun-16 02:29N 52°06' E 004°16'0 0.0
2018-Jun-16 01:59N 52°06' E 004°16'0 0.0
2018-Jun-16 01:29N 52°06' E 004°16'0 0.0
2018-Jun-16 00:59N 52°06' E 004°16'0 0.0
2018-Jun-16 00:29N 52°06' E 004°16'0 0.0
2018-Jun-15 23:56N 52°06' E 004°16'0 0.0
2018-Jun-15 23:29N 52°06' E 004°16'0 0.0
2018-Jun-15 22:59N 52°06' E 004°16'0 0.0
2018-Jun-15 22:29N 52°06' E 004°16'0 0.0
2018-Jun-15 21:59N 52°06' E 004°16'0 0.0
2018-Jun-15 21:29N 52°06' E 004°16'0 0.0
2018-Jun-15 20:56N 52°06' E 004°16'0 0.0
2018-Jun-15 20:26N 52°06' E 004°16'0 0.0
2018-Jun-15 18:50N 52°06' E 004°16'0 0.0
2018-Jun-15 18:29N 52°06' E 004°16'0 0.0
2018-Jun-15 17:47N 52°06' E 004°16'0 0.0
2018-Jun-15 17:26N 52°06' E 004°16'0 0.0
2018-Jun-15 16:44N 52°06' E 004°16'0 0.0
2018-Jun-15 16:29N 52°06' E 004°16'0 0.0
2018-Jun-15 15:50N 52°06' E 004°16'0 0.0
2018-Jun-15 15:29N 52°06' E 004°16'0 0.0
2018-Jun-15 14:59N 52°06' E 004°16'0 0.0
2018-Jun-15 14:29N 52°06' E 004°16'0 0.0
2018-Jun-15 13:59N 52°06' E 004°16'0 0.0
2018-Jun-15 13:29N 52°06' E 004°16'0 0.0
2018-Jun-15 12:59N 52°06' E 004°16'0 0.0
2018-Jun-15 12:29N 52°06' E 004°16'0 0.0
2018-Jun-15 11:59N 52°06' E 004°16'0 0.0
2018-Jun-15 11:29N 52°06' E 004°16'0 0.0
2018-Jun-15 10:59N 52°06' E 004°16'0 0.0
2018-Jun-15 10:26N 52°06' E 004°16'0 0.0
2018-Jun-15 09:56N 52°06' E 004°16'0 0.0
2018-Jun-15 09:29N 52°06' E 004°16'0 0.0
2018-Jun-15 08:53N 52°06' E 004°16'0 0.0
2018-Jun-15 08:26N 52°06' E 004°16'0 0.0
2018-Jun-15 07:59N 52°06' E 004°16'0 0.0
2018-Jun-15 07:29N 52°06' E 004°16'0 0.0
2018-Jun-15 06:53N 52°06' E 004°16'0 0.0
2018-Jun-15 06:29N 52°06' E 004°16'0 0.0
2018-Jun-15 05:59N 52°06' E 004°16'0 0.0
2018-Jun-15 05:20N 52°06' E 004°16'0 0.0
2018-Jun-15 04:59N 52°06' E 004°16'0 0.0
2018-Jun-15 04:29N 52°06' E 004°16'0 0.0
2018-Jun-15 03:53N 52°06' E 004°16'0 0.0
2018-Jun-15 03:29N 52°06' E 004°16'0 0.0
2018-Jun-15 02:59N 52°06' E 004°16'0 0.0
2018-Jun-15 02:26N 52°06' E 004°16'0 0.0
2018-Jun-15 01:59N 52°06' E 004°16'0 0.0
2018-Jun-15 01:26N 52°06' E 004°16'0 0.0
2018-Jun-15 00:59N 52°06' E 004°16'0 0.0
2018-Jun-15 00:29N 52°06' E 004°16'0 0.0
2018-Jun-14 23:59N 52°06' E 004°16'0 0.0
2018-Jun-14 23:29N 52°06' E 004°16'0 0.0
2018-Jun-14 22:59N 52°06' E 004°16'0 0.0
2018-Jun-14 22:29N 52°06' E 004°16'0 0.0
2018-Jun-14 21:59N 52°06' E 004°16'0 0.0
2018-Jun-14 21:29N 52°06' E 004°16'0 0.0
2018-Jun-14 20:56N 52°06' E 004°16'0 0.0
2018-Jun-14 20:29N 52°06' E 004°16'0 0.0
2018-Jun-14 19:59N 52°06' E 004°16'0 0.0
2018-Jun-14 19:29N 52°06' E 004°16'0 0.0
2018-Jun-14 18:53N 52°06' E 004°16'0 0.0
2018-Jun-14 18:26N 52°06' E 004°16'0 0.0
2018-Jun-14 17:59N 52°06' E 004°16'0 0.0
2018-Jun-14 17:23N 52°06' E 004°16'0 0.0
2018-Jun-14 16:59N 52°06' E 004°16'0 0.0
2018-Jun-14 16:17N 52°06' E 004°16'0 0.0
2018-Jun-14 15:53N 52°06' E 004°16'0 0.0
2018-Jun-14 15:29N 52°06' E 004°16'0 0.0
2018-Jun-14 14:59N 52°06' E 004°16'0 0.0
2018-Jun-14 14:29N 52°06' E 004°16'0 0.0
2018-Jun-14 13:59N 52°06' E 004°16'0 0.0
2018-Jun-14 13:26N 52°06' E 004°16'0 0.0
2018-Jun-14 12:59N 52°06' E 004°16'0 0.0
2018-Jun-14 12:29N 52°06' E 004°16'0 0.0
2018-Jun-14 11:56N 52°06' E 004°16'0 0.0
2018-Jun-14 11:23N 52°06' E 004°16'0 0.0
2018-Jun-14 10:05N 52°06' E 004°16'0 0.0
2018-Jun-14 09:56N 52°06' E 004°16'0 0.0
2018-Jun-14 09:17N 52°06' E 004°16'0 0.0
2018-Jun-14 08:56N 52°06' E 004°16'0 0.0
2018-Jun-14 08:29N 52°06' E 004°16'0 0.0
2018-Jun-14 07:47N 52°06' E 004°16'0 0.0
2018-Jun-14 07:29N 52°06' E 004°16'0 0.0
2018-Jun-14 06:59N 52°06' E 004°16'0 0.0
2018-Jun-14 06:23N 52°06' E 004°16'0 0.0
2018-Jun-14 05:08N 52°06' E 004°16'0 0.0
2018-Jun-14 04:56N 52°06' E 004°16'0 0.0
2018-Jun-14 04:23N 52°06' E 004°16'0 0.0
2018-Jun-14 03:56N 52°06' E 004°16'0 0.0
2018-Jun-14 03:08N 52°06' E 004°16'0 0.0
2018-Jun-14 02:59N 52°06' E 004°16'0 0.0
2018-Jun-14 02:29N 52°06' E 004°16'0 0.0
2018-Jun-14 01:56N 52°06' E 004°16'0 0.0
2018-Jun-14 00:41N 52°06' E 004°16'0 0.0
2018-Jun-14 00:29N 52°06' E 004°16'0 0.0
2018-Jun-13 23:56N 52°06' E 004°16'0 0.0
2018-Jun-13 23:08N 52°06' E 004°16'0 0.0
2018-Jun-13 22:59N 52°06' E 004°16'0 0.0
2018-Jun-13 22:29N 52°06' E 004°16'0 0.0
2018-Jun-13 21:41N 52°06' E 004°16'0 0.0
2018-Jun-13 21:29N 52°06' E 004°16'0 0.0
2018-Jun-13 20:50N 52°06' E 004°16'0 0.0
2018-Jun-13 20:29N 52°06' E 004°16'0 0.0
2018-Jun-13 19:59N 52°06' E 004°16'0 0.0
2018-Jun-13 19:20N 52°06' E 004°16'0 0.0
2018-Jun-13 18:59N 52°06' E 004°16'0 0.0
2018-Jun-13 18:26N 52°06' E 004°16'0 0.0
2018-Jun-13 17:29N 52°06' E 004°16'0 0.0
2018-Jun-13 16:56N 52°06' E 004°16'0 0.0
2018-Jun-13 15:35N 52°06' E 004°16'0 0.0
2018-Jun-13 15:29N 52°06' E 004°16'0 0.1
2018-Jun-13 15:01N 52°06' E 004°16'4 7.5
2018-Jun-13 14:31N 52°09' E 004°13'1 2.0
2018-Jun-13 14:00N 52°09' E 004°12'0 0.8
2018-Jun-13 13:31N 52°09' E 004°13'4 8.1
2018-Jun-13 13:01N 52°06' E 004°07'612.2
2018-Jun-13 12:30N 52°02' E 004°01'611.7
2018-Jun-13 12:00N 51°58' E 003°54'510.5
2018-Jun-13 11:30N 51°55' E 003°47'5 9.6
2018-Jun-13 11:00N 51°55' E 003°39'1 1.9
2018-Jun-13 10:30N 51°56' E 003°41'1 1.7
2018-Jun-13 10:00N 51°55' E 003°40'0 0.9
2018-Jun-13 09:28N 51°55' E 003°40'0 0.2
2018-Jun-13 08:58N 51°55' E 003°40'4 7.5
2018-Jun-13 08:29N 51°57' E 003°35'1110.0
2018-Jun-13 07:20N 51°60' E 003°17'2 1.0
2018-Jun-13 05:31N 52°01' E 003°15'14 2.1
2018-Jun-12 22:56N 51°47' E 003°13'4 5.7
2018-Jun-12 22:12N 51°43' E 003°13'1 3.4
2018-Jun-12 21:59N 51°42' E 003°13'2 3.3
2018-Jun-12 21:30N 51°41' E 003°13'2 3.3
2018-Jun-12 21:00N 51°39' E 003°14'1 2.8
2018-Jun-12 20:30N 51°38' E 003°16'3 6.1
2018-Jun-12 19:58N 51°40' E 003°21'1 2.2
2018-Jun-12 19:23N 51°39' E 003°20'1 2.8
2018-Jun-12 18:54N 51°40' E 003°22'2 4.8
2018-Jun-12 18:26N 51°39' E 003°19'2 4.4
2018-Jun-12 17:57N 51°40' E 003°22'1 2.9
2018-Jun-12 17:27N 51°39' E 003°20'0 0.4
2018-Jun-12 16:59N 51°39' E 003°20'1 2.6
2018-Jun-12 16:30N 51°40' E 003°21'0 0.7
2018-Jun-12 15:53N 51°40' E 003°22'0 0.2
2018-Jun-12 15:10N 51°40' E 003°22'2 7.5
2018-Jun-12 14:58N 51°39' E 003°20'1 2.6
2018-Jun-12 14:27N 51°40' E 003°21'1 2.1
2018-Jun-12 13:55N 51°39' E 003°20'1 1.7
2018-Jun-12 13:30N 51°39' E 003°19'0 0.5
2018-Jun-12 12:55N 51°39' E 003°19'2 4.3
2018-Jun-12 12:30N 51°40' E 003°21'1 1.5
2018-Jun-12 12:00N 51°39' E 003°20'2 3.5
2018-Jun-12 11:25N 51°37' E 003°20'0 0.6
2018-Jun-12 10:59N 51°38' E 003°20'3 4.9
2018-Jun-12 10:27N 51°36' E 003°17'0 0.9
2018-Jun-12 10:00N 51°36' E 003°17'1 2.7
2018-Jun-12 09:30N 51°37' E 003°19'1 2.7
2018-Jun-12 09:00N 51°38' E 003°20'1 1.3
2018-Jun-12 08:30N 51°37' E 003°20'0 0.5
2018-Jun-12 07:59N 51°38' E 003°20'2 2.7
2018-Jun-12 07:24N 51°39' E 003°21'1 2.0
2018-Jun-12 06:58N 51°40' E 003°22'0 0.1
2018-Jun-12 06:30N 51°40' E 003°22'0 0.7
2018-Jun-12 05:52N 51°40' E 003°21'1 2.1
2018-Jun-12 05:29N 51°40' E 003°22'1 1.2
2018-Jun-12 04:51N 51°40' E 003°22'1 1.4
2018-Jun-12 04:20N 51°41' E 003°21'1 2.0
2018-Jun-12 03:39N 51°41' E 003°24'1 5.4
2018-Jun-12 03:25N 51°42' E 003°25'3 5.0
2018-Jun-12 02:55N 51°44' E 003°27'2 4.2
2018-Jun-12 02:30N 51°46' E 003°29'3 4.3
2018-Jun-12 01:46N 51°48' E 003°33'4 4.2
2018-Jun-12 00:42N 51°50' E 003°39'1 3.8
2018-Jun-12 00:28N 51°51' E 003°40'2 4.0
2018-Jun-12 00:00N 51°52' E 003°43'2 3.8
2018-Jun-11 23:30N 51°53' E 003°45'2 4.1
2018-Jun-11 23:00N 51°54' E 003°48'2 3.3
2018-Jun-11 22:30N 51°55' E 003°50'3 5.1
2018-Jun-11 22:00N 51°57' E 003°53'4 8.3
2018-Jun-11 21:30N 51°60' E 003°57'5 9.8
2018-Jun-11 21:00N 52°02' E 004°04'8 7.7
2018-Jun-11 20:00N 52°06' E 004°16'0 0.0
2018-Jun-11 19:30N 52°06' E 004°16'0 0.0
2018-Jun-11 19:00N 52°06' E 004°16'0 0.0
2018-Jun-11 18:30N 52°06' E 004°16'0 0.0
2018-Jun-11 18:00N 52°06' E 004°16'0 0.1
2018-Jun-11 17:30N 52°06' E 004°16'4 8.4
2018-Jun-11 17:00N 52°09' E 004°12'611.5
2018-Jun-11 16:31N 52°14' E 004°07'611.5
2018-Jun-11 16:00N 52°19' E 004°03'611.1
2018-Jun-11 15:30N 52°24' E 003°58'5 9.8
2018-Jun-11 14:59N 52°29' E 003°57'0 0.8
2018-Jun-11 14:29N 52°30' E 003°56'1 1.8
2018-Jun-11 14:00N 52°30' E 003°58'0 0.5
2018-Jun-11 13:30N 52°30' E 003°57'1 1.5
2018-Jun-11 12:59N 52°30' E 003°56'1 1.2
2018-Jun-11 12:30N 52°30' E 003°57'1 1.0
2018-Jun-11 11:59N 52°30' E 003°56'3 7.1
2018-Jun-11 11:30N 52°26' E 003°57'611.2
2018-Jun-11 11:00N 52°22' E 004°02'611.3
2018-Jun-11 10:30N 52°16' E 004°06'510.9
2018-Jun-11 10:00N 52°11' E 004°09'511.0
2018-Jun-11 09:30N 52°07' E 004°14'1 2.6
2018-Jun-11 09:00N 52°06' E 004°16'0 0.0
2018-Jun-11 08:30N 52°06' E 004°16'0 0.0
2018-Jun-11 08:00N 52°06' E 004°16'0 0.0
2018-Jun-11 07:30N 52°06' E 004°16'0 0.0
2018-Jun-11 07:00N 52°06' E 004°16'0 0.0
2018-Jun-11 06:30N 52°06' E 004°16'0 0.0
2018-Jun-11 06:00N 52°06' E 004°16'0 0.0
2018-Jun-11 05:30N 52°06' E 004°16'0 0.0
2018-Jun-11 05:00N 52°06' E 004°16'0 0.0
2018-Jun-11 04:30N 52°06' E 004°16'0 0.0
2018-Jun-11 04:00N 52°06' E 004°16'0 0.0
2018-Jun-11 03:30N 52°06' E 004°16'0 0.0
2018-Jun-11 03:00N 52°06' E 004°16'0 0.0
2018-Jun-11 02:30N 52°06' E 004°16'0 0.0
2018-Jun-11 02:00N 52°06' E 004°16'0 0.0
2018-Jun-11 01:30N 52°06' E 004°16'0 0.0
2018-Jun-11 01:00N 52°06' E 004°16'0 0.0
2018-Jun-11 00:30N 52°06' E 004°16'0 0.0
2018-Jun-11 00:00N 52°06' E 004°16'0 0.0
2018-Jun-10 23:30N 52°06' E 004°16'0 0.0
2018-Jun-10 22:54N 52°06' E 004°16'0 0.0
2018-Jun-10 22:27N 52°06' E 004°16'0 0.0
2018-Jun-10 22:00N 52°06' E 004°16'0 0.0
2018-Jun-10 21:30N 52°06' E 004°16'0 0.0
2018-Jun-10 21:00N 52°06' E 004°16'0 0.0
2018-Jun-10 20:30N 52°06' E 004°16'0 0.0
2018-Jun-10 20:00N 52°06' E 004°16'0 0.0
2018-Jun-10 19:30N 52°06' E 004°16'0 0.0
2018-Jun-10 19:00N 52°06' E 004°16'0 0.0
2018-Jun-10 18:30N 52°06' E 004°16'0 0.0
2018-Jun-10 18:00N 52°06' E 004°16'0 0.0
2018-Jun-10 17:30N 52°06' E 004°16'0 0.0
2018-Jun-10 17:00N 52°06' E 004°16'0 0.0
2018-Jun-10 16:30N 52°06' E 004°16'0 0.0
2018-Jun-10 16:00N 52°06' E 004°16'0 0.0
2018-Jun-10 15:30N 52°06' E 004°16'0 0.0
2018-Jun-10 15:00N 52°06' E 004°16'0 0.0
2018-Jun-10 14:00N 52°06' E 004°16'0 0.0
2018-Jun-10 13:30N 52°06' E 004°16'0 0.0
2018-Jun-10 13:00N 52°06' E 004°16'0 0.0
2018-Jun-10 12:30N 52°06' E 004°16'0 0.0
2018-Jun-10 12:00N 52°06' E 004°16'0 0.0
2018-Jun-10 11:30N 52°06' E 004°16'0 0.0
2018-Jun-10 11:00N 52°06' E 004°16'0 0.0
2018-Jun-10 10:24N 52°06' E 004°16'0 0.0
2018-Jun-10 10:00N 52°06' E 004°16'0 0.0
2018-Jun-10 09:30N 52°06' E 004°16'0 0.0
2018-Jun-10 09:00N 52°06' E 004°16'0 0.0
2018-Jun-10 08:30N 52°06' E 004°16'0 0.0
2018-Jun-10 08:00N 52°06' E 004°16'0 0.0
2018-Jun-10 07:30N 52°06' E 004°16'0 0.0
2018-Jun-10 06:57N 52°06' E 004°16'0 0.0
2018-Jun-10 06:30N 52°06' E 004°16'0 0.0
2018-Jun-10 05:57N 52°06' E 004°16'0 0.0
2018-Jun-10 05:30N 52°06' E 004°16'0 0.0
2018-Jun-10 04:57N 52°06' E 004°16'0 0.0
2018-Jun-10 04:30N 52°06' E 004°16'0 0.0
2018-Jun-10 04:00N 52°06' E 004°16'0 0.0
2018-Jun-10 03:30N 52°06' E 004°16'0 0.0
2018-Jun-10 03:00N 52°06' E 004°16'0 0.0
2018-Jun-10 02:30N 52°06' E 004°16'0 0.0
2018-Jun-10 02:00N 52°06' E 004°16'0 0.0
2018-Jun-10 01:30N 52°06' E 004°16'0 0.0
2018-Jun-10 01:00N 52°06' E 004°16'0 0.0
2018-Jun-10 00:30N 52°06' E 004°16'0 0.0
2018-Jun-10 00:00N 52°06' E 004°16'0 0.0
2018-Jun-09 23:30N 52°06' E 004°16'0 0.0
2018-Jun-09 23:00N 52°06' E 004°16'0 0.0
2018-Jun-09 22:30N 52°06' E 004°16'0 0.0
2018-Jun-09 22:00N 52°06' E 004°16'0 0.0
2018-Jun-09 21:30N 52°06' E 004°16'0 0.0
2018-Jun-09 21:00N 52°06' E 004°16'0 0.0
2018-Jun-09 20:30N 52°06' E 004°16'0 0.0
2018-Jun-09 20:00N 52°06' E 004°16'0 0.0
2018-Jun-09 19:30N 52°06' E 004°16'0 0.0
2018-Jun-09 19:00N 52°06' E 004°16'0 0.0
2018-Jun-09 18:30N 52°06' E 004°16'0 0.0
2018-Jun-09 18:00N 52°06' E 004°16'0 0.0
2018-Jun-09 17:30N 52°06' E 004°16'0 0.0
2018-Jun-09 17:00N 52°06' E 004°16'0 0.0
2018-Jun-09 16:30N 52°06' E 004°16'0 0.0
2018-Jun-09 16:00N 52°06' E 004°16'0 0.0
2018-Jun-09 15:30N 52°06' E 004°16'  
Track history (hours):
 
Tides and Currents Weather Stations Pressure Air Temp Water Temp Dewpoint Dewpoint Depression Visibility Wind Speed Wind Dir Waves Ship Positions

Oceanographic research ship Zirfaea (Netherlands)

Detailed information on ship capabilities available from University of Delaware's Ocean Information Center.

Last reported at 2018-Jun-19 14:40 UTC. Time now 2018-Jun-20 15:23 UTC.
Position N 51°51' E 003°08'.

Length 63 m; draft 3.9 m.

Type: Law enforcement. MMSI: 246096000.

Date/timePositionNaut miles runAvg speedWind from/ knotsBaromVisibWave heightAir tempDewpointWater temp
2018-Jun-19 14:40N 51°51' E 003°08'2 9.8
2018-Jun-19 14:30N 51°50' E 003°10'5 9.8
2018-Jun-19 14:00N 51°46' E 003°14'5 9.7
2018-Jun-19 13:29N 51°42' E 003°19'3 5.2
2018-Jun-19 13:01N 51°39' E 003°20'1 2.6
2018-Jun-19 12:30N 51°38' E 003°20'1 1.2
2018-Jun-19 11:59N 51°37' E 003°20'1 3.0
2018-Jun-19 11:30N 51°39' E 003°19'1 2.1
2018-Jun-19 11:00N 51°39' E 003°20'0 0.4
2018-Jun-19 10:30N 51°39' E 003°20'2 3.5
2018-Jun-19 10:00N 51°40' E 003°22'1 2.7
2018-Jun-19 09:30N 51°39' E 003°20'1 1.9
2018-Jun-19 09:00N 51°39' E 003°19'0 0.5
2018-Jun-19 08:28N 51°39' E 003°19'2 4.5
2018-Jun-19 08:00N 51°40' E 003°22'1 1.8
2018-Jun-19 07:28N 51°39' E 003°21'1 2.9
2018-Jun-19 07:00N 51°38' E 003°19'3 3.5
2018-Jun-19 06:02N 51°41' E 003°24'0 2.5
2018-Jun-19 05:57N 51°40' E 003°23'1 1.8
2018-Jun-19 05:29N 51°40' E 003°22'7 2.1
2018-Jun-19 02:17N 51°46' E 003°29'1 2.4
2018-Jun-19 01:58N 51°45' E 003°28'2 2.0
2018-Jun-19 01:13N 51°44' E 003°26'8 1.9
2018-Jun-18 21:01N 51°50' E 003°35'0 1.2
2018-Jun-18 20:57N 51°50' E 003°35'8 3.8
2018-Jun-18 18:49N 51°44' E 003°25'4 5.3
2018-Jun-18 18:02N 51°41' E 003°21'1 5.1
2018-Jun-18 17:55N 51°41' E 003°20'2 5.1
2018-Jun-18 17:28N 51°39' E 003°20'2 3.3
2018-Jun-18 16:56N 51°40' E 003°22'3 7.7
2018-Jun-18 16:29N 51°39' E 003°17'2 3.9
2018-Jun-18 15:59N 51°38' E 003°20'1 1.3
2018-Jun-18 15:28N 51°38' E 003°20'1 1.2
2018-Jun-18 14:56N 51°38' E 003°20'19 9.6
2018-Jun-18 12:59N 51°51' E 003°42'511.2
2018-Jun-18 12:30N 51°55' E 003°48'611.5
2018-Jun-18 12:00N 51°59' E 003°56'611.1
2018-Jun-18 11:31N 52°02' E 004°03'611.0
2018-Jun-18 11:00N 52°06' E 004°09'3 6.8
2018-Jun-18 10:30N 52°09' E 004°12'1 1.8
2018-Jun-18 10:01N 52°09' E 004°13'1 1.8
2018-Jun-18 09:31N 52°09' E 004°12'2 4.8
2018-Jun-18 09:00N 52°07' E 004°15'1 1.7
2018-Jun-18 08:26N 52°06' E 004°16'0 0.0
2018-Jun-18 07:59N 52°06' E 004°16'0 0.0
2018-Jun-18 07:29N 52°06' E 004°16'0 0.0
2018-Jun-18 06:59N 52°06' E 004°16'0 0.0
2018-Jun-18 06:29N 52°06' E 004°16'0 0.0
2018-Jun-18 05:59N 52°06' E 004°16'0 0.0
2018-Jun-18 05:29N 52°06' E 004°16'0 0.0
2018-Jun-18 04:59N 52°06' E 004°16'0 0.0
2018-Jun-18 04:26N 52°06' E 004°16'0 0.0
2018-Jun-18 03:59N 52°06' E 004°16'0 0.0
2018-Jun-18 03:29N 52°06' E 004°16'0 0.0
2018-Jun-18 02:56N 52°06' E 004°16'0 0.0
2018-Jun-18 02:26N 52°06' E 004°16'0 0.0
2018-Jun-18 01:59N 52°06' E 004°16'0 0.0
2018-Jun-18 01:29N 52°06' E 004°16'0 0.0
2018-Jun-18 00:59N 52°06' E 004°16'0 0.0
2018-Jun-18 00:29N 52°06' E 004°16'0 0.0
2018-Jun-17 23:59N 52°06' E 004°16'0 0.0
2018-Jun-17 23:29N 52°06' E 004°16'0 0.0
2018-Jun-17 22:59N 52°06' E 004°16'0 0.0
2018-Jun-17 22:29N 52°06' E 004°16'0 0.0
2018-Jun-17 21:59N 52°06' E 004°16'0 0.0
2018-Jun-17 21:29N 52°06' E 004°16'0 0.0
2018-Jun-17 20:59N 52°06' E 004°16'0 0.0
2018-Jun-17 20:29N 52°06' E 004°16'0 0.0
2018-Jun-17 19:59N 52°06' E 004°16'0 0.0
2018-Jun-17 19:29N 52°06' E 004°16'0 0.0
2018-Jun-17 18:59N 52°06' E 004°16'0 0.0
2018-Jun-17 18:29N 52°06' E 004°16'0 0.0
2018-Jun-17 17:59N 52°06' E 004°16'0 0.0
2018-Jun-17 17:29N 52°06' E 004°16'0 0.0
2018-Jun-17 16:59N 52°06' E 004°16'0 0.0
2018-Jun-17 16:29N 52°06' E 004°16'0 0.0
2018-Jun-17 15:59N 52°06' E 004°16'0 0.0
2018-Jun-17 15:29N 52°06' E 004°16'0 0.0
2018-Jun-17 14:59N 52°06' E 004°16'0 0.0
2018-Jun-17 14:29N 52°06' E 004°16'0 0.0
2018-Jun-17 13:59N 52°06' E 004°16'0 0.0
2018-Jun-17 13:29N 52°06' E 004°16'0 0.0
2018-Jun-17 12:59N 52°06' E 004°16'0 0.0
2018-Jun-17 12:29N 52°06' E 004°16'0 0.0
2018-Jun-17 11:59N 52°06' E 004°16'0 0.0
2018-Jun-17 11:29N 52°06' E 004°16'0 0.0
2018-Jun-17 10:59N 52°06' E 004°16'0 0.0
2018-Jun-17 10:29N 52°06' E 004°16'0 0.0
2018-Jun-17 09:59N 52°06' E 004°16'0 0.0
2018-Jun-17 09:29N 52°06' E 004°16'0 0.0
2018-Jun-17 08:59N 52°06' E 004°16'0 0.0
2018-Jun-17 08:29N 52°06' E 004°16'0 0.0
2018-Jun-17 07:59N 52°06' E 004°16'0 0.0
2018-Jun-17 07:29N 52°06' E 004°16'0 0.0
2018-Jun-17 06:56N 52°06' E 004°16'0 0.0
2018-Jun-17 06:29N 52°06' E 004°16'0 0.0
2018-Jun-17 05:59N 52°06' E 004°16'0 0.0
2018-Jun-17 05:23N 52°06' E 004°16'0 0.0
2018-Jun-17 04:59N 52°06' E 004°16'0 0.0
2018-Jun-17 04:29N 52°06' E 004°16'0 0.0
2018-Jun-17 03:59N 52°06' E 004°16'0 0.0
2018-Jun-17 03:29N 52°06' E 004°16'0 0.0
2018-Jun-17 02:59N 52°06' E 004°16'0 0.0
2018-Jun-17 02:29N 52°06' E 004°16'0 0.0
2018-Jun-17 01:59N 52°06' E 004°16'0 0.0
2018-Jun-17 01:29N 52°06' E 004°16'0 0.0
2018-Jun-17 00:59N 52°06' E 004°16'0 0.0
2018-Jun-17 00:29N 52°06' E 004°16'0 0.0
2018-Jun-16 23:59N 52°06' E 004°16'0 0.0
2018-Jun-16 23:29N 52°06' E 004°16'0 0.0
2018-Jun-16 22:59N 52°06' E 004°16'0 0.0
2018-Jun-16 22:29N 52°06' E 004°16'0 0.0
2018-Jun-16 21:59N 52°06' E 004°16'0 0.0
2018-Jun-16 21:29N 52°06' E 004°16'0 0.0
2018-Jun-16 20:59N 52°06' E 004°16'0 0.0
2018-Jun-16 20:29N 52°06' E 004°16'0 0.0
2018-Jun-16 19:59N 52°06' E 004°16'0 0.0
2018-Jun-16 19:29N 52°06' E 004°16'0 0.0
2018-Jun-16 18:59N 52°06' E 004°16'0 0.0
2018-Jun-16 18:26N 52°06' E 004°16'0 0.0
2018-Jun-16 17:59N 52°06' E 004°16'0 0.0
2018-Jun-16 17:29N 52°06' E 004°16'0 0.0
2018-Jun-16 16:59N 52°06' E 004°16'0 0.0
2018-Jun-16 16:29N 52°06' E 004°16'0 0.0
2018-Jun-16 15:59N 52°06' E 004°16'0 0.0
2018-Jun-16 15:29N 52°06' E 004°16'0 0.0
2018-Jun-16 14:59N 52°06' E 004°16'0 0.0
2018-Jun-16 14:29N 52°06' E 004°16'0 0.0
2018-Jun-16 13:59N 52°06' E 004°16'0 0.0
2018-Jun-16 13:29N 52°06' E 004°16'0 0.0
2018-Jun-16 12:59N 52°06' E 004°16'0 0.0
2018-Jun-16 12:29N 52°06' E 004°16'0 0.0
2018-Jun-16 11:59N 52°06' E 004°16'0 0.0
2018-Jun-16 11:29N 52°06' E 004°16'0 0.0
2018-Jun-16 10:59N 52°06' E 004°16'0 0.0
2018-Jun-16 10:29N 52°06' E 004°16'0 0.0
2018-Jun-16 09:59N 52°06' E 004°16'0 0.0
2018-Jun-16 09:29N 52°06' E 004°16'0 0.0
2018-Jun-16 08:59N 52°06' E 004°16'0 0.0
2018-Jun-16 08:29N 52°06' E 004°16'0 0.0
2018-Jun-16 07:59N 52°06' E 004°16'0 0.0
2018-Jun-16 07:29N 52°06' E 004°16'0 0.0
2018-Jun-16 06:59N 52°06' E 004°16'0 0.0
2018-Jun-16 06:29N 52°06' E 004°16'0 0.0
2018-Jun-16 05:56N 52°06' E 004°16'0 0.0
2018-Jun-16 05:29N 52°06' E 004°16'0 0.0
2018-Jun-16 04:59N 52°06' E 004°16'0 0.0
2018-Jun-16 04:29N 52°06' E 004°16'0 0.0
2018-Jun-16 03:59N 52°06' E 004°16'0 0.0
2018-Jun-16 03:26N 52°06' E 004°16'0 0.0
2018-Jun-16 02:59N 52°06' E 004°16'0 0.0
2018-Jun-16 02:29N 52°06' E 004°16'0 0.0
2018-Jun-16 01:59N 52°06' E 004°16'0 0.0
2018-Jun-16 01:29N 52°06' E 004°16'0 0.0
2018-Jun-16 00:59N 52°06' E 004°16'0 0.0
2018-Jun-16 00:29N 52°06' E 004°16'0 0.0
2018-Jun-15 23:56N 52°06' E 004°16'0 0.0
2018-Jun-15 23:29N 52°06' E 004°16'0 0.0
2018-Jun-15 22:59N 52°06' E 004°16'0 0.0
2018-Jun-15 22:29N 52°06' E 004°16'0 0.0
2018-Jun-15 21:59N 52°06' E 004°16'0 0.0
2018-Jun-15 21:29N 52°06' E 004°16'0 0.0
2018-Jun-15 20:56N 52°06' E 004°16'0 0.0
2018-Jun-15 20:26N 52°06' E 004°16'0 0.0
2018-Jun-15 18:50N 52°06' E 004°16'0 0.0
2018-Jun-15 18:29N 52°06' E 004°16'0 0.0
2018-Jun-15 17:47N 52°06' E 004°16'0 0.0
2018-Jun-15 17:26N 52°06' E 004°16'0 0.0
2018-Jun-15 16:44N 52°06' E 004°16'0 0.0
2018-Jun-15 16:29N 52°06' E 004°16'0 0.0
2018-Jun-15 15:50N 52°06' E 004°16'0 0.0
2018-Jun-15 15:29N 52°06' E 004°16'0 0.0
2018-Jun-15 14:59N 52°06' E 004°16'0 0.0
2018-Jun-15 14:29N 52°06' E 004°16'0 0.0
2018-Jun-15 13:59N 52°06' E 004°16'0 0.0
2018-Jun-15 13:29N 52°06' E 004°16'0 0.0
2018-Jun-15 12:59N 52°06' E 004°16'0 0.0
2018-Jun-15 12:29N 52°06' E 004°16'0 0.0
2018-Jun-15 11:59N 52°06' E 004°16'0 0.0
2018-Jun-15 11:29N 52°06' E 004°16'0 0.0
2018-Jun-15 10:59N 52°06' E 004°16'0 0.0
2018-Jun-15 10:26N 52°06' E 004°16'0 0.0
2018-Jun-15 09:56N 52°06' E 004°16'0 0.0
2018-Jun-15 09:29N 52°06' E 004°16'0 0.0
2018-Jun-15 08:53N 52°06' E 004°16'0 0.0
2018-Jun-15 08:26N 52°06' E 004°16'0 0.0
2018-Jun-15 07:59N 52°06' E 004°16'0 0.0
2018-Jun-15 07:29N 52°06' E 004°16'0 0.0
2018-Jun-15 06:53N 52°06' E 004°16'0 0.0
2018-Jun-15 06:29N 52°06' E 004°16'0 0.0
2018-Jun-15 05:59N 52°06' E 004°16'0 0.0
2018-Jun-15 05:20N 52°06' E 004°16'0 0.0
2018-Jun-15 04:59N 52°06' E 004°16'0 0.0
2018-Jun-15 04:29N 52°06' E 004°16'0 0.0
2018-Jun-15 03:53N 52°06' E 004°16'0 0.0
2018-Jun-15 03:29N 52°06' E 004°16'0 0.0
2018-Jun-15 02:59N 52°06' E 004°16'0 0.0
2018-Jun-15 02:26N 52°06' E 004°16'0 0.0
2018-Jun-15 01:59N 52°06' E 004°16'0 0.0
2018-Jun-15 01:26N 52°06' E 004°16'0 0.0
2018-Jun-15 00:59N 52°06' E 004°16'0 0.0
2018-Jun-15 00:29N 52°06' E 004°16'0 0.0
2018-Jun-14 23:59N 52°06' E 004°16'0 0.0
2018-Jun-14 23:29N 52°06' E 004°16'0 0.0
2018-Jun-14 22:59N 52°06' E 004°16'0 0.0
2018-Jun-14 22:29N 52°06' E 004°16'0 0.0
2018-Jun-14 21:59N 52°06' E 004°16'0 0.0
2018-Jun-14 21:29N 52°06' E 004°16'0 0.0
2018-Jun-14 20:56N 52°06' E 004°16'0 0.0
2018-Jun-14 20:29N 52°06' E 004°16'0 0.0
2018-Jun-14 19:59N 52°06' E 004°16'0 0.0
2018-Jun-14 19:29N 52°06' E 004°16'0 0.0
2018-Jun-14 18:53N 52°06' E 004°16'0 0.0
2018-Jun-14 18:26N 52°06' E 004°16'0 0.0
2018-Jun-14 17:59N 52°06' E 004°16'0 0.0
2018-Jun-14 17:23N 52°06' E 004°16'0 0.0
2018-Jun-14 16:59N 52°06' E 004°16'0 0.0
2018-Jun-14 16:17N 52°06' E 004°16'0 0.0
2018-Jun-14 15:53N 52°06' E 004°16'0 0.0
2018-Jun-14 15:29N 52°06' E 004°16'0 0.0
2018-Jun-14 14:59N 52°06' E 004°16'0 0.0
2018-Jun-14 14:29N 52°06' E 004°16'0 0.0
2018-Jun-14 13:59N 52°06' E 004°16'0 0.0
2018-Jun-14 13:26N 52°06' E 004°16'0 0.0
2018-Jun-14 12:59N 52°06' E 004°16'0 0.0
2018-Jun-14 12:29N 52°06' E 004°16'0 0.0
2018-Jun-14 11:56N 52°06' E 004°16'0 0.0
2018-Jun-14 11:23N 52°06' E 004°16'0 0.0
2018-Jun-14 10:05N 52°06' E 004°16'0 0.0
2018-Jun-14 09:56N 52°06' E 004°16'0 0.0
2018-Jun-14 09:17N 52°06' E 004°16'0 0.0
2018-Jun-14 08:56N 52°06' E 004°16'0 0.0
2018-Jun-14 08:29N 52°06' E 004°16'0 0.0
2018-Jun-14 07:47N 52°06' E 004°16'0 0.0
2018-Jun-14 07:29N 52°06' E 004°16'0 0.0
2018-Jun-14 06:59N 52°06' E 004°16'0 0.0
2018-Jun-14 06:23N 52°06' E 004°16'0 0.0
2018-Jun-14 05:08N 52°06' E 004°16'0 0.0
2018-Jun-14 04:56N 52°06' E 004°16'0 0.0
2018-Jun-14 04:23N 52°06' E 004°16'0 0.0
2018-Jun-14 03:56N 52°06' E 004°16'0 0.0
2018-Jun-14 03:08N 52°06' E 004°16'0 0.0
2018-Jun-14 02:59N 52°06' E 004°16'0 0.0
2018-Jun-14 02:29N 52°06' E 004°16'0 0.0
2018-Jun-14 01:56N 52°06' E 004°16'0 0.0
2018-Jun-14 00:41N 52°06' E 004°16'0 0.0
2018-Jun-14 00:29N 52°06' E 004°16'0 0.0
2018-Jun-13 23:56N 52°06' E 004°16'0 0.0
2018-Jun-13 23:08N 52°06' E 004°16'0 0.0
2018-Jun-13 22:59N 52°06' E 004°16'0 0.0
2018-Jun-13 22:29N 52°06' E 004°16'0 0.0
2018-Jun-13 21:41N 52°06' E 004°16'0 0.0
2018-Jun-13 21:29N 52°06' E 004°16'0 0.0
2018-Jun-13 20:50N 52°06' E 004°16'0 0.0
2018-Jun-13 20:29N 52°06' E 004°16'0 0.0
2018-Jun-13 19:59N 52°06' E 004°16'0 0.0
2018-Jun-13 19:20N 52°06' E 004°16'0 0.0
2018-Jun-13 18:59N 52°06' E 004°16'0 0.0
2018-Jun-13 18:26N 52°06' E 004°16'0 0.0
2018-Jun-13 17:29N 52°06' E 004°16'0 0.0
2018-Jun-13 16:56N 52°06' E 004°16'0 0.0
2018-Jun-13 15:35N 52°06' E 004°16'0 0.0
2018-Jun-13 15:29N 52°06' E 004°16'0 0.1
2018-Jun-13 15:01N 52°06' E 004°16'4 7.5
2018-Jun-13 14:31N 52°09' E 004°13'1 2.0
2018-Jun-13 14:00N 52°09' E 004°12'0 0.8
2018-Jun-13 13:31N 52°09' E 004°13'4 8.1
2018-Jun-13 13:01N 52°06' E 004°07'612.2
2018-Jun-13 12:30N 52°02' E 004°01'611.7
2018-Jun-13 12:00N 51°58' E 003°54'510.5
2018-Jun-13 11:30N 51°55' E 003°47'5 9.6
2018-Jun-13 11:00N 51°55' E 003°39'1 1.9
2018-Jun-13 10:30N 51°56' E 003°41'1 1.7
2018-Jun-13 10:00N 51°55' E 003°40'0 0.9
2018-Jun-13 09:28N 51°55' E 003°40'0 0.2
2018-Jun-13 08:58N 51°55' E 003°40'4 7.5
2018-Jun-13 08:29N 51°57' E 003°35'1110.0
2018-Jun-13 07:20N 51°60' E 003°17'2 1.0
2018-Jun-13 05:31N 52°01' E 003°15'14 2.1
2018-Jun-12 22:56N 51°47' E 003°13'4 5.7
2018-Jun-12 22:12N 51°43' E 003°13'1 3.4
2018-Jun-12 21:59N 51°42' E 003°13'2 3.3
2018-Jun-12 21:30N 51°41' E 003°13'2 3.3
2018-Jun-12 21:00N 51°39' E 003°14'1 2.8
2018-Jun-12 20:30N 51°38' E 003°16'3 6.1
2018-Jun-12 19:58N 51°40' E 003°21'1 2.2
2018-Jun-12 19:23N 51°39' E 003°20'1 2.8
2018-Jun-12 18:54N 51°40' E 003°22'2 4.8
2018-Jun-12 18:26N 51°39' E 003°19'2 4.4
2018-Jun-12 17:57N 51°40' E 003°22'1 2.9
2018-Jun-12 17:27N 51°39' E 003°20'0 0.4
2018-Jun-12 16:59N 51°39' E 003°20'1 2.6
2018-Jun-12 16:30N 51°40' E 003°21'0 0.7
2018-Jun-12 15:53N 51°40' E 003°22'0 0.2
2018-Jun-12 15:10N 51°40' E 003°22'2 7.5
2018-Jun-12 14:58N 51°39' E 003°20'1 2.6
2018-Jun-12 14:27N 51°40' E 003°21'1 2.1
2018-Jun-12 13:55N 51°39' E 003°20'1 1.7
2018-Jun-12 13:30N 51°39' E 003°19'0 0.5
2018-Jun-12 12:55N 51°39' E 003°19'2 4.3
2018-Jun-12 12:30N 51°40' E 003°21'1 1.5
2018-Jun-12 12:00N 51°39' E 003°20'2 3.5
2018-Jun-12 11:25N 51°37' E 003°20'0 0.6
2018-Jun-12 10:59N 51°38' E 003°20'3 4.9
2018-Jun-12 10:27N 51°36' E 003°17'0 0.9
2018-Jun-12 10:00N 51°36' E 003°17'1 2.7
2018-Jun-12 09:30N 51°37' E 003°19'1 2.7
2018-Jun-12 09:00N 51°38' E 003°20'1 1.3
2018-Jun-12 08:30N 51°37' E 003°20'0 0.5
2018-Jun-12 07:59N 51°38' E 003°20'2 2.7
2018-Jun-12 07:24N 51°39' E 003°21'1 2.0
2018-Jun-12 06:58N 51°40' E 003°22'0 0.1
2018-Jun-12 06:30N 51°40' E 003°22'0 0.7
2018-Jun-12 05:52N 51°40' E 003°21'1 2.1
2018-Jun-12 05:29N 51°40' E 003°22'1 1.2
2018-Jun-12 04:51N 51°40' E 003°22'1 1.4
2018-Jun-12 04:20N 51°41' E 003°21'1 2.0
2018-Jun-12 03:39N 51°41' E 003°24'1 5.4
2018-Jun-12 03:25N 51°42' E 003°25'3 5.0
2018-Jun-12 02:55N 51°44' E 003°27'2 4.2
2018-Jun-12 02:30N 51°46' E 003°29'3 4.3
2018-Jun-12 01:46N 51°48' E 003°33'4 4.2
2018-Jun-12 00:42N 51°50' E 003°39'1 3.8
2018-Jun-12 00:28N 51°51' E 003°40'2 4.0
2018-Jun-12 00:00N 51°52' E 003°43'2 3.8
2018-Jun-11 23:30N 51°53' E 003°45'2 4.1
2018-Jun-11 23:00N 51°54' E 003°48'2 3.3
2018-Jun-11 22:30N 51°55' E 003°50'3 5.1
2018-Jun-11 22:00N 51°57' E 003°53'4 8.3
2018-Jun-11 21:30N 51°60' E 003°57'5 9.8
2018-Jun-11 21:00N 52°02' E 004°04'8 7.7
2018-Jun-11 20:00N 52°06' E 004°16'0 0.0
2018-Jun-11 19:30N 52°06' E 004°16'0 0.0
2018-Jun-11 19:00N 52°06' E 004°16'0 0.0
2018-Jun-11 18:30N 52°06' E 004°16'0 0.0
2018-Jun-11 18:00N 52°06' E 004°16'0 0.1
2018-Jun-11 17:30N 52°06' E 004°16'4 8.4
2018-Jun-11 17:00N 52°09' E 004°12'611.5
2018-Jun-11 16:31N 52°14' E 004°07'611.5
2018-Jun-11 16:00N 52°19' E 004°03'611.1
2018-Jun-11 15:30N 52°24' E 003°58'5 9.8
2018-Jun-11 14:59N 52°29' E 003°57'0 0.8
2018-Jun-11 14:29N 52°30' E 003°56'1 1.8
2018-Jun-11 14:00N 52°30' E 003°58'0 0.5
2018-Jun-11 13:30N 52°30' E 003°57'1 1.5
2018-Jun-11 12:59N 52°30' E 003°56'1 1.2
2018-Jun-11 12:30N 52°30' E 003°57'1 1.0
2018-Jun-11 11:59N 52°30' E 003°56'3 7.1
2018-Jun-11 11:30N 52°26' E 003°57'611.2
2018-Jun-11 11:00N 52°22' E 004°02'611.3
2018-Jun-11 10:30N 52°16' E 004°06'510.9
2018-Jun-11 10:00N 52°11' E 004°09'511.0
2018-Jun-11 09:30N 52°07' E 004°14'1 2.6
2018-Jun-11 09:00N 52°06' E 004°16'0 0.0
2018-Jun-11 08:30N 52°06' E 004°16'0 0.0
2018-Jun-11 08:00N 52°06' E 004°16'0 0.0
2018-Jun-11 07:30N 52°06' E 004°16'0 0.0
2018-Jun-11 07:00N 52°06' E 004°16'0 0.0
2018-Jun-11 06:30N 52°06' E 004°16'0 0.0
2018-Jun-11 06:00N 52°06' E 004°16'0 0.0
2018-Jun-11 05:30N 52°06' E 004°16'0 0.0
2018-Jun-11 05:00N 52°06' E 004°16'0 0.0
2018-Jun-11 04:30N 52°06' E 004°16'0 0.0
2018-Jun-11 04:00N 52°06' E 004°16'0 0.0
2018-Jun-11 03:30N 52°06' E 004°16'0 0.0
2018-Jun-11 03:00N 52°06' E 004°16'0 0.0
2018-Jun-11 02:30N 52°06' E 004°16'0 0.0
2018-Jun-11 02:00N 52°06' E 004°16'0 0.0
2018-Jun-11 01:30N 52°06' E 004°16'0 0.0
2018-Jun-11 01:00N 52°06' E 004°16'0 0.0
2018-Jun-11 00:30N 52°06' E 004°16'0 0.0
2018-Jun-11 00:00N 52°06' E 004°16'0 0.0
2018-Jun-10 23:30N 52°06' E 004°16'0 0.0
2018-Jun-10 22:54N 52°06' E 004°16'0 0.0
2018-Jun-10 22:27N 52°06' E 004°16'0 0.0
2018-Jun-10 22:00N 52°06' E 004°16'0 0.0
2018-Jun-10 21:30N 52°06' E 004°16'0 0.0
2018-Jun-10 21:00N 52°06' E 004°16'0 0.0
2018-Jun-10 20:30N 52°06' E 004°16'0 0.0
2018-Jun-10 20:00N 52°06' E 004°16'0 0.0
2018-Jun-10 19:30N 52°06' E 004°16'0 0.0
2018-Jun-10 19:00N 52°06' E 004°16'0 0.0
2018-Jun-10 18:30N 52°06' E 004°16'0 0.0
2018-Jun-10 18:00N 52°06' E 004°16'0 0.0
2018-Jun-10 17:30N 52°06' E 004°16'0 0.0
2018-Jun-10 17:00N 52°06' E 004°16'0 0.0
2018-Jun-10 16:30N 52°06' E 004°16'0 0.0
2018-Jun-10 16:00N 52°06' E 004°16'0 0.0
2018-Jun-10 15:30N 52°06' E 004°16'0 0.0
2018-Jun-10 15:00N 52°06' E 004°16'0 0.0
2018-Jun-10 14:00N 52°06' E 004°16'0 0.0
2018-Jun-10 13:30N 52°06' E 004°16'0 0.0
2018-Jun-10 13:00N 52°06' E 004°16'0 0.0
2018-Jun-10 12:30N 52°06' E 004°16'0 0.0
2018-Jun-10 12:00N 52°06' E 004°16'0 0.0
2018-Jun-10 11:30N 52°06' E 004°16'0 0.0
2018-Jun-10 11:00N 52°06' E 004°16'0 0.0
2018-Jun-10 10:24N 52°06' E 004°16'0 0.0
2018-Jun-10 10:00N 52°06' E 004°16'0 0.0
2018-Jun-10 09:30N 52°06' E 004°16'0 0.0
2018-Jun-10 09:00N 52°06' E 004°16'0 0.0
2018-Jun-10 08:30N 52°06' E 004°16'0 0.0
2018-Jun-10 08:00N 52°06' E 004°16'0 0.0
2018-Jun-10 07:30N 52°06' E 004°16'0 0.0
2018-Jun-10 06:57N 52°06' E 004°16'0 0.0
2018-Jun-10 06:30N 52°06' E 004°16'0 0.0
2018-Jun-10 05:57N 52°06' E 004°16'0 0.0
2018-Jun-10 05:30N 52°06' E 004°16'0 0.0
2018-Jun-10 04:57N 52°06' E 004°16'0 0.0
2018-Jun-10 04:30N 52°06' E 004°16'0 0.0
2018-Jun-10 04:00N 52°06' E 004°16'0 0.0
2018-Jun-10 03:30N 52°06' E 004°16'0 0.0
2018-Jun-10 03:00N 52°06' E 004°16'0 0.0
2018-Jun-10 02:30N 52°06' E 004°16'0 0.0
2018-Jun-10 02:00N 52°06' E 004°16'0 0.0
2018-Jun-10 01:30N 52°06' E 004°16'0 0.0
2018-Jun-10 01:00N 52°06' E 004°16'0 0.0
2018-Jun-10 00:30N 52°06' E 004°16'0 0.0
2018-Jun-10 00:00N 52°06' E 004°16'0 0.0
2018-Jun-09 23:30N 52°06' E 004°16'0 0.0
2018-Jun-09 23:00N 52°06' E 004°16'0 0.0
2018-Jun-09 22:30N 52°06' E 004°16'0 0.0
2018-Jun-09 22:00N 52°06' E 004°16'0 0.0
2018-Jun-09 21:30N 52°06' E 004°16'0 0.0
2018-Jun-09 21:00N 52°06' E 004°16'0 0.0
2018-Jun-09 20:30N 52°06' E 004°16'0 0.0
2018-Jun-09 20:00N 52°06' E 004°16'0 0.0
2018-Jun-09 19:30N 52°06' E 004°16'0 0.0
2018-Jun-09 19:00N 52°06' E 004°16'0 0.0
2018-Jun-09 18:30N 52°06' E 004°16'0 0.0
2018-Jun-09 18:00N 52°06' E 004°16'0 0.0
2018-Jun-09 17:30N 52°06' E 004°16'0 0.0
2018-Jun-09 17:00N 52°06' E 004°16'0 0.0
2018-Jun-09 16:30N 52°06' E 004°16'0 0.0
2018-Jun-09 16:00N 52°06' E 004°16'0 0.0
2018-Jun-09 15:30N 52°06' E 004°16'  

Dump ship's entire track history